createdAt,value
2019-02-03T00:01:05.482Z,38.48
2019-02-03T00:03:32.774Z,42.37
2019-02-03T00:06:00.078Z,48.80
2019-02-03T00:08:27.392Z,44.73
2019-02-03T00:10:54.690Z,47.43
2019-02-03T00:13:22.022Z,46.60
2019-02-03T00:15:49.686Z,46.20
2019-02-03T00:18:16.986Z,36.40
2019-02-03T00:20:44.303Z,43.65
2019-02-03T00:23:11.601Z,47.45
2019-02-03T00:25:38.932Z,47.98
2019-02-03T00:28:06.248Z,48.28
2019-02-03T00:30:34.017Z,48.07
2019-02-03T00:33:01.342Z,49.63
2019-02-03T00:35:28.682Z,50.88
2019-02-03T00:37:56.088Z,49.48
2019-02-03T00:40:24.958Z,50.00
2019-02-03T00:42:52.254Z,49.83
2019-02-03T00:45:19.546Z,47.25
2019-02-03T00:47:46.878Z,52.30
2019-02-03T00:50:14.737Z,49.55
2019-02-03T00:52:42.036Z,50.15
2019-02-03T00:55:10.969Z,51.05
2019-02-03T00:57:38.289Z,49.93
2019-02-03T01:00:07.228Z,50.50
2019-02-03T01:02:34.532Z,51.40
2019-02-03T01:05:01.822Z,50.90
2019-02-03T01:07:29.127Z,47.05
2019-02-03T01:09:56.451Z,48.00
2019-02-03T01:12:23.746Z,51.40
2019-02-03T01:14:51.067Z,43.97
2019-02-03T01:17:18.663Z,40.08
2019-02-03T01:19:45.992Z,43.30
2019-02-03T01:22:13.295Z,41.20
2019-02-03T01:24:40.614Z,40.40
2019-02-03T01:27:07.906Z,44.18
2019-02-03T01:29:35.209Z,38.08
2019-02-03T01:32:02.529Z,44.50
2019-02-03T01:34:29.834Z,40.40
2019-02-03T01:36:57.155Z,42.83
2019-02-03T01:39:24.457Z,36.15
2019-02-03T01:41:51.779Z,39.38
2019-02-03T01:44:19.070Z,32.85
2019-02-03T01:46:46.386Z,34.30
2019-02-03T01:49:14.043Z,30.52
2019-02-03T01:51:41.373Z,31.48
2019-02-03T01:54:08.662Z,32.05
2019-02-03T01:56:35.991Z,37.25
2019-02-03T01:59:03.295Z,30.57
2019-02-03T02:01:30.614Z,30.57
2019-02-03T02:03:57.914Z,37.08
2019-02-03T02:06:25.228Z,27.13
2019-02-03T02:08:52.524Z,35.98
2019-02-03T02:11:19.830Z,39.58
2019-02-03T02:13:47.156Z,26.23
2019-02-03T02:16:14.454Z,36.70
2019-02-03T02:18:41.766Z,35.28
2019-02-03T02:21:09.078Z,35.60
2019-02-03T02:23:36.393Z,34.05
2019-02-03T02:26:03.712Z,33.90
2019-02-03T02:28:31.025Z,35.03
2019-02-03T02:30:58.336Z,35.13
2019-02-03T02:33:25.661Z,33.95
2019-02-03T02:35:52.977Z,36.98
2019-02-03T02:38:21.096Z,37.50
2019-02-03T02:40:48.384Z,35.88
2019-02-03T02:43:15.677Z,36.28
2019-02-03T02:45:43.011Z,37.93
2019-02-03T02:48:10.322Z,37.00
2019-02-03T02:50:39.188Z,38.58
2019-02-03T02:53:06.490Z,39.05
2019-02-03T02:55:33.813Z,39.63
2019-02-03T02:58:01.098Z,40.95
2019-02-03T03:00:28.397Z,40.52
2019-02-03T03:02:55.701Z,40.52
2019-02-03T03:05:22.998Z,39.23
2019-02-03T03:07:50.292Z,40.03
2019-02-03T03:10:18.602Z,37.50
2019-02-03T03:12:46.041Z,37.90
2019-02-03T03:15:14.328Z,38.02
2019-02-03T03:17:41.636Z,37.50
2019-02-03T03:20:10.123Z,36.65
2019-02-03T03:22:37.428Z,35.37
2019-02-03T03:25:06.353Z,33.40
2019-02-03T03:27:33.687Z,31.97
2019-02-03T03:30:00.986Z,25.32
2019-02-03T03:32:28.690Z,24.02
2019-02-03T03:34:55.974Z,25.27
2019-02-03T03:37:23.299Z,28.75
2019-02-03T03:39:50.605Z,33.13
2019-02-03T03:42:18.204Z,32.10
2019-02-03T03:44:45.521Z,32.23
2019-02-03T03:47:13.008Z,35.25
2019-02-03T03:49:40.478Z,35.48
2019-02-03T03:52:07.847Z,32.20
2019-02-03T03:54:35.165Z,35.25
2019-02-03T03:57:02.461Z,35.80
2019-02-03T03:59:29.756Z,35.10
2019-02-03T04:01:57.069Z,34.03
2019-02-03T04:04:24.373Z,35.13
2019-02-03T04:06:51.764Z,34.18
2019-02-03T04:09:19.062Z,34.03
2019-02-03T04:11:46.398Z,33.50
2019-02-03T04:14:14.409Z,34.60
2019-02-03T04:16:41.700Z,34.75
2019-02-03T04:19:09.233Z,31.23
2019-02-03T04:21:36.759Z,33.53
2019-02-03T04:24:04.054Z,30.12
2019-02-03T04:26:31.510Z,33.15
2019-02-03T04:28:58.824Z,32.90
2019-02-03T04:31:26.205Z,32.98
2019-02-03T04:33:53.859Z,33.25
2019-02-03T04:36:21.316Z,31.70
2019-02-03T04:38:57.593Z,31.97
2019-02-03T04:41:17.547Z,32.73
2019-02-03T04:43:44.858Z,32.33
2019-02-03T04:46:12.446Z,31.82
2019-02-03T04:48:39.775Z,30.02
2019-02-03T04:51:07.185Z,27.50
2019-02-03T04:53:34.508Z,29.05
2019-02-03T04:56:01.996Z,28.62
2019-02-03T04:58:29.863Z,29.47
2019-02-03T05:00:57.193Z,29.63
2019-02-03T05:03:24.763Z,31.37
2019-02-03T05:05:52.118Z,30.82
2019-02-03T05:08:19.435Z,28.40
2019-02-03T05:10:46.741Z,29.85
2019-02-03T05:13:14.080Z,31.13
2019-02-03T05:15:42.063Z,30.65
2019-02-03T05:18:10.137Z,31.50
2019-02-03T05:20:37.591Z,29.35
2019-02-03T05:23:05.025Z,30.23
2019-02-03T05:25:32.814Z,28.13
2019-02-03T05:28:00.372Z,25.55
2019-02-03T05:30:31.419Z,26.05
2019-02-03T05:33:00.594Z,24.55
2019-02-03T05:35:27.891Z,24.07
2019-02-03T05:37:55.222Z,24.27
2019-02-03T05:40:22.683Z,23.52
2019-02-03T05:42:49.981Z,23.20
2019-02-03T05:45:18.385Z,24.05
2019-02-03T05:47:45.733Z,23.32
2019-02-03T05:50:14.108Z,23.10
2019-02-03T05:52:41.758Z,25.72
2019-02-03T05:55:09.085Z,24.57
2019-02-03T05:57:36.494Z,26.17
2019-02-03T06:00:05.473Z,30.00
2019-02-03T06:02:32.797Z,22.85
2019-02-03T06:05:00.513Z,24.27
2019-02-03T06:07:27.801Z,22.02
2019-02-03T06:09:55.323Z,22.50
2019-02-03T06:12:22.892Z,23.53
2019-02-03T06:14:50.162Z,23.87
2019-02-03T06:17:17.489Z,22.45
2019-02-03T06:19:44.916Z,23.47
2019-02-03T06:22:12.314Z,23.50
2019-02-03T06:24:39.638Z,20.95
2019-02-03T06:27:06.962Z,22.07
2019-02-03T06:29:34.478Z,20.75
2019-02-03T06:32:01.785Z,23.45
2019-02-03T06:34:29.305Z,21.93
2019-02-03T06:36:56.914Z,21.10
2019-02-03T06:39:24.214Z,22.82
2019-02-03T06:41:51.524Z,21.90
2019-02-03T06:44:18.850Z,22.90
2019-02-03T06:46:50.507Z,24.52
2019-02-03T06:49:19.446Z,27.30
2019-02-03T06:51:46.967Z,27.58
2019-02-03T06:54:14.287Z,28.47
2019-02-03T06:56:41.582Z,28.30
2019-02-03T06:59:08.902Z,31.68
2019-02-03T07:01:36.206Z,31.80
2019-02-03T07:04:03.533Z,31.40
2019-02-03T07:06:30.838Z,33.73
2019-02-03T07:08:58.139Z,37.20
2019-02-03T07:11:25.457Z,34.48
2019-02-03T07:13:52.759Z,33.70
2019-02-03T07:16:20.073Z,34.63
2019-02-03T07:18:47.374Z,36.53
2019-02-03T07:21:14.699Z,35.40
2019-02-03T07:23:42.329Z,35.25
2019-02-03T07:26:09.613Z,36.00
2019-02-03T07:28:37.034Z,36.08
2019-02-03T07:31:04.443Z,33.70
2019-02-03T07:33:31.757Z,33.20
2019-02-03T07:35:59.121Z,33.70
2019-02-03T07:38:26.418Z,31.97
2019-02-03T07:40:53.962Z,29.75
2019-02-03T07:43:21.237Z,32.55
2019-02-03T07:45:48.555Z,33.05
2019-02-03T07:48:15.874Z,31.00
2019-02-03T07:50:43.169Z,33.35
2019-02-03T07:53:10.465Z,33.55
2019-02-03T07:55:37.786Z,31.77
2019-02-03T07:58:05.077Z,32.20
2019-02-03T08:00:32.413Z,31.77
2019-02-03T08:02:59.752Z,32.40
2019-02-03T08:05:27.159Z,32.40
2019-02-03T08:07:54.471Z,34.63
2019-02-03T08:10:26.941Z,35.38
2019-02-03T08:12:50.863Z,33.60
2019-02-03T08:15:18.546Z,35.08
2019-02-03T08:17:45.854Z,34.98
2019-02-03T08:20:17.202Z,36.10
2019-02-03T08:22:44.519Z,36.87
2019-02-03T08:25:12.756Z,35.40
2019-02-03T08:27:40.062Z,35.75
2019-02-03T08:30:09.015Z,38.45
2019-02-03T08:32:36.319Z,36.13
2019-02-03T08:35:03.985Z,37.05
2019-02-03T08:37:31.310Z,36.08
2019-02-03T08:39:58.605Z,37.90
2019-02-03T08:42:25.926Z,39.80
2019-02-03T08:44:53.552Z,39.33
2019-02-03T08:47:20.853Z,37.98
2019-02-03T08:49:48.170Z,38.45
2019-02-03T08:52:15.464Z,40.15
2019-02-03T08:54:56.804Z,39.13
2019-02-03T08:57:11.739Z,39.63
2019-02-03T08:59:39.043Z,39.60
2019-02-03T09:02:07.158Z,37.55
2019-02-03T09:04:34.454Z,40.67
2019-02-03T09:07:01.795Z,37.70
2019-02-03T09:09:29.095Z,39.30
2019-02-03T09:11:56.381Z,39.30
2019-02-03T09:14:23.707Z,37.30
2019-02-03T09:16:51.305Z,37.83
2019-02-03T09:19:18.603Z,39.98
2019-02-03T09:21:45.928Z,38.53
2019-02-03T09:24:13.229Z,39.78
2019-02-03T09:26:40.522Z,38.43
2019-02-03T09:29:08.069Z,40.70
2019-02-03T09:31:35.331Z,37.50
2019-02-03T09:34:02.997Z,33.80
2019-02-03T09:36:30.326Z,37.00
2019-02-03T09:38:57.626Z,37.50
2019-02-03T09:41:25.184Z,39.30
2019-02-03T09:43:52.500Z,40.20
2019-02-03T09:46:20.689Z,37.07
2019-02-03T09:48:49.655Z,33.28
2019-02-03T09:51:16.963Z,37.93
2019-02-03T09:53:44.494Z,39.18
2019-02-03T09:56:12.534Z,37.50
2019-02-03T09:58:40.523Z,47.53
2019-02-03T10:01:07.842Z,43.92
2019-02-03T10:03:35.143Z,44.93
2019-02-03T10:06:02.773Z,35.88
2019-02-03T10:08:40.391Z,37.30
2019-02-03T10:10:59.082Z,45.12
2019-02-03T10:13:26.484Z,42.00
2019-02-03T10:15:53.876Z,37.33
2019-02-03T10:18:21.324Z,36.20
2019-02-03T10:20:48.638Z,39.92
2019-02-03T10:23:16.335Z,37.83
2019-02-03T10:25:43.628Z,37.43
2019-02-03T10:28:11.556Z,38.92
2019-02-03T10:30:38.839Z,40.58
2019-02-03T10:33:06.288Z,39.55
2019-02-03T10:35:34.233Z,41.77
2019-02-03T10:38:04.783Z,44.10
2019-02-03T10:40:36.189Z,40.52
2019-02-03T10:43:03.893Z,36.90
2019-02-03T10:45:31.193Z,39.83
2019-02-03T10:47:58.663Z,44.87
2019-02-03T10:50:35.767Z,50.77
2019-02-03T10:53:03.833Z,35.17
2019-02-03T10:55:32.269Z,43.25
2019-02-03T10:57:59.961Z,41.50
2019-02-03T11:00:28.611Z,38.45
2019-02-03T11:02:55.916Z,47.48
2019-02-03T11:05:24.697Z,42.17
2019-02-03T11:07:52.490Z,35.48
2019-02-03T11:10:20.964Z,37.33
2019-02-03T11:12:48.277Z,35.00
2019-02-03T11:15:15.978Z,35.90
2019-02-03T11:17:43.283Z,40.98
2019-02-03T11:20:12.215Z,34.80
2019-02-03T11:22:39.538Z,39.08
2019-02-03T11:25:07.614Z,33.13
2019-02-03T11:27:34.907Z,38.02
2019-02-03T11:30:02.255Z,33.95
2019-02-03T11:32:29.558Z,36.25
2019-02-03T11:34:56.894Z,32.15
2019-02-03T11:37:24.181Z,34.80
2019-02-03T11:39:51.477Z,32.80
2019-02-03T11:42:18.803Z,38.55
2019-02-03T11:44:46.308Z,39.67
2019-02-03T11:52:06.930Z,30.23
2019-02-03T11:54:34.209Z,36.20
2019-02-03T11:57:01.525Z,29.25
2019-02-03T11:59:28.867Z,38.92
2019-02-03T12:01:56.869Z,30.27
2019-02-03T12:04:24.187Z,28.75
2019-02-03T12:06:51.488Z,29.65
2019-02-03T12:09:18.782Z,29.23
2019-02-03T12:11:46.112Z,29.18
2019-02-03T12:14:13.405Z,29.10
2019-02-03T12:16:41.025Z,30.57
2019-02-03T12:19:08.323Z,30.32
2019-02-03T12:21:35.614Z,31.37
2019-02-03T12:24:02.943Z,29.07
2019-02-03T12:26:30.341Z,32.63
2019-02-03T12:28:57.635Z,29.90
2019-02-03T12:31:24.941Z,31.33
2019-02-03T12:33:52.261Z,29.75
2019-02-03T12:36:19.562Z,31.15
2019-02-03T12:38:46.858Z,32.40
2019-02-03T12:41:14.186Z,31.55
2019-02-03T12:43:41.488Z,36.40
2019-02-03T12:46:08.790Z,33.28
2019-02-03T12:48:36.415Z,31.40
2019-02-03T12:51:03.734Z,34.67
2019-02-03T12:53:31.050Z,38.98
2019-02-03T12:55:58.370Z,31.62
2019-02-03T12:58:25.696Z,31.42
2019-02-03T13:00:53.023Z,31.80
2019-02-03T13:03:20.314Z,35.05
2019-02-03T13:05:47.937Z,30.97
2019-02-03T13:08:15.240Z,28.05
2019-02-03T13:10:42.556Z,30.10
2019-02-03T13:13:09.859Z,29.18
2019-02-03T13:15:38.435Z,28.73
2019-02-03T13:18:06.051Z,30.72
2019-02-03T13:20:33.752Z,29.10
2019-02-03T13:23:01.417Z,29.92
2019-02-03T13:25:28.736Z,27.10
2019-02-03T13:27:56.021Z,28.98
2019-02-03T13:30:27.455Z,27.15
2019-02-03T13:32:54.760Z,27.10
2019-02-03T13:35:22.545Z,25.85
2019-02-03T13:37:49.860Z,27.15
2019-02-03T13:40:17.425Z,24.43
2019-02-03T13:42:44.725Z,24.77
2019-02-03T13:45:20.527Z,25.50
2019-02-03T13:47:42.677Z,24.30
2019-02-03T13:50:14.626Z,22.27
2019-02-03T13:52:41.929Z,25.45
2019-02-03T13:55:10.087Z,22.82
2019-02-03T13:57:37.397Z,23.92
2019-02-03T14:00:06.322Z,22.30
2019-02-03T14:02:33.618Z,22.40
2019-02-03T14:05:01.142Z,24.60
2019-02-03T14:07:28.442Z,22.60
2019-02-03T14:09:55.742Z,22.48
2019-02-03T14:12:23.058Z,28.20
2019-02-03T14:14:50.354Z,20.60
2019-02-03T14:17:17.674Z,22.15
2019-02-03T14:19:45.293Z,22.10
2019-02-03T14:22:12.585Z,22.67
2019-02-03T14:24:39.879Z,21.68
2019-02-03T14:27:07.204Z,22.48
2019-02-03T14:29:34.597Z,20.07
2019-02-03T14:32:02.031Z,25.00
2019-02-03T14:34:29.356Z,21.80
2019-02-03T14:36:56.862Z,20.10
2019-02-03T14:39:24.176Z,20.92
2019-02-03T14:41:51.466Z,21.27
2019-02-03T14:44:18.790Z,19.98
2019-02-03T14:46:46.081Z,20.82
2019-02-03T14:49:13.403Z,21.40
2019-02-03T14:51:40.698Z,19.53
2019-02-03T14:54:07.998Z,22.10
2019-02-03T14:56:35.323Z,22.62
2019-02-03T14:59:02.614Z,19.60
2019-02-03T15:01:29.940Z,19.15
2019-02-03T15:03:57.262Z,20.80
2019-02-03T15:06:24.567Z,20.00
2019-02-03T15:08:52.057Z,19.27
2019-02-03T15:11:19.381Z,19.17
2019-02-03T15:13:46.758Z,18.92
2019-02-03T15:16:14.059Z,19.40
2019-02-03T15:18:41.387Z,15.53
2019-02-03T15:21:08.857Z,18.52
2019-02-03T15:23:36.482Z,17.92
2019-02-03T15:26:03.779Z,19.37
2019-02-03T15:28:31.078Z,19.52
2019-02-03T15:30:58.392Z,19.23
2019-02-03T15:33:25.687Z,20.05
2019-02-03T15:35:52.981Z,18.82
2019-02-03T15:38:20.292Z,19.00
2019-02-03T15:40:47.593Z,20.35
2019-02-03T15:43:25.172Z,20.77
2019-02-03T15:45:43.872Z,19.15
2019-02-03T15:48:11.370Z,19.47
2019-02-03T15:50:38.729Z,17.50
2019-02-03T15:53:06.177Z,18.15
2019-02-03T15:55:35.065Z,19.20
2019-02-03T15:58:02.385Z,17.77
2019-02-03T16:00:40.104Z,18.35
2019-02-03T16:03:08.630Z,16.80
2019-02-03T16:05:36.077Z,17.70
2019-02-03T16:08:03.466Z,17.37
2019-02-03T16:10:30.753Z,17.50
2019-02-03T16:12:58.100Z,18.70
2019-02-03T16:15:25.419Z,17.35
2019-02-03T16:17:52.770Z,16.85
2019-02-03T16:20:21.242Z,16.95
2019-02-03T16:22:48.748Z,16.90
2019-02-03T16:25:16.606Z,17.50
2019-02-03T16:27:43.906Z,17.87
2019-02-03T16:30:12.983Z,18.40
2019-02-03T16:32:40.270Z,17.30
2019-02-03T16:35:09.328Z,16.60
2019-02-03T16:37:36.852Z,16.77
2019-02-03T16:40:05.783Z,17.25
2019-02-03T16:42:33.135Z,17.50
2019-02-03T16:45:00.654Z,16.07
2019-02-03T16:47:28.101Z,18.12
2019-02-03T16:49:55.391Z,16.75
2019-02-03T16:52:22.693Z,18.25
2019-02-03T16:54:50.018Z,16.57
2019-02-03T16:57:19.815Z,17.10
2019-02-03T16:59:46.648Z,16.57
2019-02-03T17:02:13.949Z,15.83
2019-02-03T17:04:42.460Z,16.48
2019-02-03T17:07:09.898Z,17.17
2019-02-03T17:09:37.244Z,16.25
2019-02-03T17:12:04.531Z,16.90
2019-02-03T17:14:33.668Z,17.60
2019-02-03T17:17:01.070Z,15.10
2019-02-03T17:19:28.372Z,17.05
2019-02-03T17:21:55.694Z,17.70
2019-02-03T17:24:23.001Z,16.77
2019-02-03T17:26:50.454Z,15.32
2019-02-03T17:29:17.869Z,15.65
2019-02-03T17:31:45.163Z,16.42
2019-02-03T17:34:12.450Z,15.88
2019-02-03T17:36:41.821Z,15.80
2019-02-03T17:39:08.722Z,16.95
2019-02-03T17:41:36.016Z,14.90
2019-02-03T17:44:12.516Z,15.75
2019-02-03T17:46:32.279Z,15.38
2019-02-03T17:48:59.598Z,16.30
2019-02-03T17:51:26.896Z,15.72
2019-02-03T17:53:54.194Z,15.23
2019-02-03T17:56:21.519Z,15.18
2019-02-03T17:58:48.842Z,15.50
2019-02-03T18:01:16.146Z,14.80
2019-02-03T18:03:43.639Z,14.75
2019-02-03T18:06:10.960Z,14.13
2019-02-03T18:08:38.258Z,14.58
2019-02-03T18:11:05.565Z,14.50
2019-02-03T18:13:32.901Z,14.10
2019-02-03T18:16:00.201Z,15.07
2019-02-03T18:18:27.524Z,13.83
2019-02-03T18:20:54.830Z,13.10
2019-02-03T18:23:22.182Z,13.83
2019-02-03T18:25:49.449Z,13.78
2019-02-03T18:28:17.740Z,13.95
2019-02-03T18:30:45.053Z,13.88
2019-02-03T18:33:12.358Z,13.55
2019-02-03T18:35:39.967Z,19.90
2019-02-03T18:38:08.955Z,13.68
2019-02-03T18:40:36.223Z,15.15
2019-02-03T18:43:03.710Z,13.30
2019-02-03T18:45:31.285Z,12.75
2019-02-03T18:47:58.570Z,12.30
2019-02-03T18:50:25.904Z,14.28
2019-02-03T18:52:53.306Z,14.58
2019-02-03T18:55:21.787Z,12.88
2019-02-03T18:57:49.167Z,13.10
2019-02-03T19:00:18.110Z,15.23
2019-02-03T19:02:45.418Z,16.52
2019-02-03T19:05:14.320Z,14.13
2019-02-03T19:07:41.884Z,13.62
2019-02-03T19:10:10.798Z,13.85
2019-02-03T19:12:38.128Z,15.05
2019-02-03T19:15:06.998Z,14.28
2019-02-03T19:17:34.339Z,14.05
2019-02-03T19:20:01.647Z,15.28
2019-02-03T19:22:29.274Z,13.30
2019-02-03T19:24:56.603Z,14.80
2019-02-03T19:27:23.918Z,14.07
2019-02-03T19:29:51.225Z,14.23
2019-02-03T19:32:18.533Z,15.13
2019-02-03T19:34:45.847Z,13.43
2019-02-03T19:37:13.174Z,14.68
2019-02-03T19:39:40.870Z,13.85
2019-02-03T19:42:08.194Z,14.55
2019-02-03T19:44:35.486Z,13.88
2019-02-03T19:47:02.824Z,14.83
2019-02-03T19:49:30.127Z,13.68
2019-02-03T19:51:57.432Z,14.83
2019-02-03T19:54:24.743Z,14.87
2019-02-03T19:56:52.244Z,13.45
2019-02-03T19:59:19.566Z,15.03
2019-02-03T20:01:46.858Z,13.58
2019-02-03T20:04:14.155Z,14.20
2019-02-03T20:06:41.479Z,14.68
2019-02-03T20:09:09.314Z,14.30
2019-02-03T20:11:36.641Z,13.40
2019-02-03T20:14:03.942Z,13.60
2019-02-03T20:16:31.236Z,12.98
2019-02-03T20:18:58.557Z,11.88
2019-02-03T20:21:25.867Z,13.53
2019-02-03T20:23:53.192Z,13.55
2019-02-03T20:26:20.497Z,13.25
2019-02-03T20:28:47.793Z,13.70
2019-02-03T20:31:15.112Z,14.50
2019-02-03T20:33:42.412Z,14.47
2019-02-03T20:36:09.726Z,14.07
2019-02-03T20:38:37.034Z,14.60
2019-02-03T20:41:04.345Z,15.05
2019-02-03T20:43:31.692Z,14.75
2019-02-03T20:45:59.023Z,15.15
2019-02-03T20:48:26.317Z,15.40
2019-02-03T20:50:53.615Z,15.50
2019-02-03T20:53:20.942Z,14.50
2019-02-03T20:55:48.244Z,15.03
2019-02-03T20:58:15.587Z,15.68
2019-02-03T21:00:42.896Z,15.83
2019-02-03T21:03:10.190Z,15.08
2019-02-03T21:05:37.516Z,15.83
2019-02-03T21:08:04.843Z,15.80
2019-02-03T21:10:32.151Z,15.65
2019-02-03T21:13:10.004Z,14.70
2019-02-03T21:15:33.740Z,15.95
2019-02-03T21:17:57.466Z,14.30
2019-02-03T21:20:29.143Z,16.00
2019-02-03T21:22:56.453Z,14.53
2019-02-03T21:25:23.750Z,15.35
2019-02-03T21:27:51.069Z,14.33
2019-02-03T21:30:19.428Z,15.60
2019-02-03T21:32:46.752Z,14.68
2019-02-03T21:35:14.452Z,15.28
2019-02-03T21:37:41.746Z,15.13
2019-02-03T21:40:10.715Z,14.38
2019-02-03T21:42:38.000Z,13.53
2019-02-03T21:45:06.694Z,14.47
2019-02-03T21:47:34.002Z,14.05
2019-02-03T21:50:01.356Z,13.88
2019-02-03T21:52:28.843Z,13.55
2019-02-03T21:54:56.149Z,12.80
2019-02-03T21:57:23.478Z,13.18
2019-02-03T21:59:50.768Z,13.45
2019-02-03T22:02:18.115Z,13.98
2019-02-03T22:04:45.389Z,11.25
2019-02-03T22:07:12.746Z,12.88
2019-02-03T22:09:40.074Z,13.43
2019-02-03T22:12:07.372Z,13.90
2019-02-03T22:14:34.691Z,13.30
2019-02-03T22:17:01.990Z,14.03
2019-02-03T22:19:29.290Z,13.53
2019-02-03T22:21:56.619Z,13.15
2019-02-03T22:24:24.258Z,14.75
2019-02-03T22:26:51.626Z,14.13
2019-02-03T22:29:18.946Z,14.45
2019-02-03T22:31:46.267Z,14.23
2019-02-03T22:34:13.566Z,14.30
2019-02-03T22:36:40.864Z,14.00
2019-02-03T22:39:08.191Z,14.25
2019-02-03T22:41:35.493Z,14.33
2019-02-03T22:44:02.807Z,14.75
2019-02-03T22:46:30.113Z,14.03
2019-02-03T22:48:57.435Z,13.10
2019-02-03T22:51:24.737Z,13.68
2019-02-03T22:53:52.056Z,12.60
2019-02-03T22:56:19.354Z,11.75
2019-02-03T22:58:46.679Z,13.28
2019-02-03T23:01:13.981Z,13.32
2019-02-03T23:03:42.261Z,13.30
2019-02-03T23:06:09.582Z,13.50
2019-02-03T23:08:36.899Z,12.90
2019-02-03T23:11:04.665Z,13.90
2019-02-03T23:13:32.191Z,15.63
2019-02-03T23:15:59.474Z,14.15
2019-02-03T23:18:26.779Z,13.18
2019-02-03T23:20:54.105Z,13.00
2019-02-03T23:23:21.472Z,14.80
2019-02-03T23:25:48.775Z,14.87
2019-02-03T23:28:16.056Z,14.15
2019-02-03T23:30:43.677Z,14.20
2019-02-03T23:33:10.970Z,14.10
2019-02-03T23:35:38.290Z,13.05
2019-02-03T23:38:05.586Z,12.82
2019-02-03T23:40:33.086Z,13.37
2019-02-03T23:43:00.405Z,14.13
2019-02-03T23:45:27.705Z,12.82
2019-02-03T23:47:55.033Z,12.60
2019-02-03T23:50:22.321Z,14.63
2019-02-03T23:52:49.633Z,14.30
2019-02-03T23:55:16.945Z,13.35
2019-02-03T23:57:44.339Z,13.93
